createdAt,value
2019-01-13T00:02:19.501Z,4.82
2019-01-13T00:04:50.824Z,4.79
2019-01-13T00:07:21.648Z,4.78
2019-01-13T00:09:51.930Z,4.76
2019-01-13T00:12:22.212Z,4.86
2019-01-13T00:14:52.455Z,4.87
2019-01-13T00:17:22.728Z,4.91
2019-01-13T00:19:53.008Z,4.86
2019-01-13T00:22:23.277Z,4.87
2019-01-13T00:24:53.576Z,4.94
2019-01-13T00:27:23.858Z,4.86
2019-01-13T00:29:54.090Z,4.82
2019-01-13T00:32:24.381Z,4.83
2019-01-13T00:34:54.665Z,4.90
2019-01-13T00:37:26.258Z,4.89
2019-01-13T00:39:56.526Z,4.93
2019-01-13T00:42:26.801Z,5.06
2019-01-13T00:44:57.067Z,5.02
2019-01-13T00:47:28.799Z,5.00
2019-01-13T00:50:00.057Z,5.00
2019-01-13T00:52:30.359Z,5.06
2019-01-13T00:55:00.655Z,5.04
2019-01-13T00:57:31.219Z,5.03
2019-01-13T01:00:01.397Z,5.03
2019-01-13T01:02:31.660Z,5.06
2019-01-13T01:05:01.912Z,5.05
2019-01-13T01:07:32.398Z,5.02
2019-01-13T01:10:02.839Z,5.07
2019-01-13T01:12:34.600Z,5.05
2019-01-13T01:15:06.002Z,5.05
2019-01-13T01:17:36.295Z,5.04
2019-01-13T01:20:08.158Z,5.02
2019-01-13T01:22:38.444Z,5.02
2019-01-13T01:25:09.720Z,5.04
2019-01-13T01:27:40.216Z,5.07
2019-01-13T01:30:13.958Z,5.10
2019-01-13T01:32:44.258Z,5.08
2019-01-13T01:35:14.827Z,5.06
2019-01-13T01:37:45.096Z,5.06
2019-01-13T01:40:20.067Z,5.08
2019-01-13T01:42:50.484Z,5.08
2019-01-13T01:45:21.945Z,5.08
2019-01-13T01:47:52.247Z,5.08
2019-01-13T01:50:22.508Z,5.11
2019-01-13T01:52:55.880Z,5.13
2019-01-13T01:55:26.136Z,5.11
2019-01-13T01:57:56.457Z,5.05
2019-01-13T02:00:26.876Z,5.09
2019-01-13T02:02:57.180Z,5.11
2019-01-13T02:05:27.457Z,5.19
2019-01-13T02:07:58.760Z,5.22
2019-01-13T02:10:40.272Z,5.31
2019-01-13T02:13:10.616Z,5.24
2019-01-13T02:15:40.870Z,5.23
2019-01-13T02:18:12.498Z,5.27
2019-01-13T02:20:42.718Z,5.27
2019-01-13T02:23:15.927Z,5.31
2019-01-13T02:25:46.132Z,5.40
2019-01-13T02:28:16.404Z,5.52
2019-01-13T02:30:49.308Z,5.53
2019-01-13T02:33:18.973Z,5.55
2019-01-13T02:35:50.281Z,5.55
2019-01-13T02:38:20.526Z,5.54
2019-01-13T02:40:50.843Z,5.50
2019-01-13T02:43:21.720Z,5.67
2019-01-13T02:45:52.005Z,5.58
2019-01-13T02:48:22.575Z,5.53
2019-01-13T02:50:52.988Z,5.53
2019-01-13T02:53:23.279Z,5.53
2019-01-13T02:55:55.532Z,5.61
2019-01-13T02:58:26.803Z,5.60
2019-01-13T03:00:57.530Z,5.61
2019-01-13T03:03:27.856Z,5.63
2019-01-13T03:05:59.223Z,5.66
2019-01-13T03:08:29.609Z,5.63
2019-01-13T03:11:00.204Z,5.64
2019-01-13T03:13:30.494Z,5.62
2019-01-13T03:16:00.701Z,5.61
2019-01-13T03:18:30.953Z,5.61
2019-01-13T03:21:01.263Z,5.63
2019-01-13T03:23:31.480Z,5.65
2019-01-13T03:26:01.977Z,5.64
2019-01-13T03:28:32.256Z,5.63
2019-01-13T03:31:11.351Z,5.64
2019-01-13T03:33:35.443Z,5.64
2019-01-13T03:36:06.996Z,5.65
2019-01-13T03:38:37.215Z,5.66
2019-01-13T03:41:08.028Z,5.64
2019-01-13T03:43:38.284Z,5.58
2019-01-13T03:46:08.519Z,5.62
2019-01-13T03:48:38.750Z,5.62
2019-01-13T03:51:09.051Z,5.63
2019-01-13T03:53:39.320Z,5.66
2019-01-13T03:56:09.597Z,5.72
2019-01-13T03:58:39.820Z,5.70
2019-01-13T04:01:10.039Z,5.76
2019-01-13T04:03:40.208Z,5.76
2019-01-13T04:06:10.856Z,5.78
2019-01-13T04:08:41.109Z,5.75
2019-01-13T04:11:11.666Z,5.74
2019-01-13T04:13:41.876Z,5.73
2019-01-13T04:16:12.260Z,5.72
2019-01-13T04:18:42.573Z,5.69
2019-01-13T04:21:12.892Z,5.74
2019-01-13T04:23:43.505Z,5.78
2019-01-13T04:26:13.972Z,5.75
2019-01-13T04:28:45.180Z,5.74
2019-01-13T04:31:15.484Z,5.70
2019-01-13T04:33:45.815Z,5.76
2019-01-13T04:36:16.137Z,5.77
2019-01-13T04:38:46.397Z,5.77
2019-01-13T04:41:16.775Z,5.85
2019-01-13T04:43:47.003Z,5.75
2019-01-13T04:46:17.332Z,5.78
2019-01-13T04:48:47.876Z,5.78
2019-01-13T04:51:20.940Z,5.75
2019-01-13T04:53:51.257Z,5.68
2019-01-13T04:56:21.487Z,5.71
2019-01-13T04:58:51.717Z,5.71
2019-01-13T05:01:21.921Z,5.74
2019-01-13T05:03:52.190Z,5.76
2019-01-13T05:06:22.462Z,5.68
2019-01-13T05:08:52.740Z,5.73
2019-01-13T05:11:23.041Z,5.65
2019-01-13T05:13:53.287Z,5.63
2019-01-13T05:16:23.575Z,5.67
2019-01-13T05:18:53.811Z,5.72
2019-01-13T05:21:24.146Z,5.72
2019-01-13T05:23:54.808Z,5.73
2019-01-13T05:26:25.097Z,5.63
2019-01-13T05:28:55.322Z,5.62
2019-01-13T05:31:25.633Z,5.59
2019-01-13T05:33:55.853Z,5.51
2019-01-13T05:36:26.208Z,5.48
2019-01-13T05:38:57.341Z,5.45
2019-01-13T05:41:27.618Z,5.35
2019-01-13T05:43:57.849Z,5.27
2019-01-13T05:46:28.085Z,5.23
2019-01-13T05:48:58.541Z,5.19
2019-01-13T05:51:28.801Z,5.16
2019-01-13T05:53:59.085Z,5.17
2019-01-13T05:56:29.347Z,5.15
2019-01-13T05:58:59.624Z,5.17
2019-01-13T06:01:29.905Z,5.13
2019-01-13T06:04:00.159Z,5.09
2019-01-13T06:06:30.611Z,5.09
2019-01-13T06:09:00.923Z,4.99
2019-01-13T06:11:31.465Z,4.99
2019-01-13T06:14:01.672Z,4.95
2019-01-13T06:16:31.947Z,4.95
2019-01-13T06:19:02.216Z,4.93
2019-01-13T06:21:32.492Z,4.90
2019-01-13T06:24:31.944Z,4.87
2019-01-13T06:27:03.264Z,4.91
2019-01-13T06:29:33.496Z,4.84
2019-01-13T06:32:03.755Z,4.84
2019-01-13T06:34:34.047Z,4.78
2019-01-13T06:37:04.232Z,4.81
2019-01-13T06:39:34.515Z,4.80
2019-01-13T06:42:04.784Z,4.71
2019-01-13T06:44:35.251Z,4.78
2019-01-13T06:47:05.427Z,4.74
2019-01-13T06:49:35.797Z,4.73
2019-01-13T06:52:06.087Z,4.77
2019-01-13T06:54:36.372Z,4.77
2019-01-13T06:57:06.806Z,4.75
2019-01-13T06:59:37.000Z,4.70
2019-01-13T07:02:07.378Z,4.73
2019-01-13T07:04:37.675Z,4.75
2019-01-13T07:07:07.838Z,4.77
2019-01-13T07:09:38.392Z,4.80
2019-01-13T07:12:08.886Z,4.79
2019-01-13T07:14:39.143Z,4.99
2019-01-13T07:17:09.787Z,4.93
2019-01-13T07:19:40.020Z,4.92
2019-01-13T07:22:10.311Z,4.93
2019-01-13T07:24:40.575Z,5.01
2019-01-13T07:27:10.876Z,5.04
2019-01-13T07:29:41.123Z,5.00
2019-01-13T07:32:11.387Z,4.92
2019-01-13T07:34:41.658Z,4.89
2019-01-13T07:37:11.956Z,4.95
2019-01-13T07:39:42.204Z,4.99
2019-01-13T07:42:12.481Z,5.01
2019-01-13T07:44:42.796Z,4.99
2019-01-13T07:47:13.016Z,4.97
2019-01-13T07:49:43.864Z,4.97
2019-01-13T07:52:14.124Z,5.00
2019-01-13T07:54:44.399Z,5.02
2019-01-13T07:57:15.013Z,5.00
2019-01-13T07:59:45.394Z,4.97
2019-01-13T08:02:17.976Z,5.03
2019-01-13T08:04:47.629Z,5.04
2019-01-13T08:07:18.915Z,5.02
2019-01-13T08:09:49.809Z,4.99
2019-01-13T08:12:20.888Z,5.04
2019-01-13T08:14:51.162Z,5.09
2019-01-13T08:17:21.703Z,5.09
2019-01-13T08:19:51.920Z,5.11
2019-01-13T08:22:22.192Z,5.10
2019-01-13T08:24:53.113Z,5.10
2019-01-13T08:27:23.364Z,5.08
2019-01-13T08:29:53.680Z,5.06
2019-01-13T08:32:25.131Z,5.06
2019-01-13T08:34:55.605Z,5.11
2019-01-13T08:37:26.145Z,5.12
2019-01-13T08:39:56.823Z,5.14
2019-01-13T08:42:27.044Z,5.17
2019-01-13T08:44:57.641Z,5.17
2019-01-13T08:47:27.836Z,5.18
2019-01-13T08:49:58.079Z,5.21
2019-01-13T08:52:28.266Z,5.23
2019-01-13T08:54:58.531Z,5.23
2019-01-13T08:57:29.111Z,5.28
2019-01-13T08:59:59.381Z,5.26
2019-01-13T09:02:32.337Z,5.27
2019-01-13T09:05:01.675Z,5.28
2019-01-13T09:07:31.924Z,5.29
2019-01-13T09:10:02.121Z,5.28
2019-01-13T09:12:33.407Z,5.26
2019-01-13T09:15:03.780Z,5.24
2019-01-13T09:17:34.382Z,5.23
2019-01-13T09:20:06.000Z,5.23
2019-01-13T09:22:38.651Z,5.17
2019-01-13T09:25:09.380Z,5.20
2019-01-13T09:27:39.653Z,5.24
2019-01-13T09:30:14.062Z,5.18
2019-01-13T09:32:44.331Z,5.21
2019-01-13T09:35:14.674Z,5.20
2019-01-13T09:37:45.034Z,5.19
2019-01-13T09:40:18.460Z,5.18
2019-01-13T09:42:49.811Z,5.16
2019-01-13T09:45:21.155Z,5.14
2019-01-13T09:47:51.351Z,5.09
2019-01-13T09:50:21.973Z,5.15
2019-01-13T09:52:52.525Z,5.16
2019-01-13T09:55:23.984Z,5.19
2019-01-13T09:57:54.319Z,5.19
2019-01-13T10:00:27.198Z,5.17
2019-01-13T10:02:57.466Z,5.28
2019-01-13T10:05:27.821Z,5.34
2019-01-13T10:07:59.651Z,5.36
2019-01-13T10:10:29.836Z,5.36
2019-01-13T10:13:01.156Z,5.37
2019-01-13T10:15:32.498Z,5.37
2019-01-13T10:18:03.952Z,5.40
2019-01-13T10:20:36.238Z,5.41
2019-01-13T10:23:06.857Z,5.44
2019-01-13T10:25:37.271Z,5.64
2019-01-13T10:28:07.676Z,5.76
2019-01-13T10:30:38.116Z,5.81
2019-01-13T10:33:08.938Z,5.79
2019-01-13T10:35:39.185Z,5.90
2019-01-13T10:38:09.687Z,6.01
2019-01-13T10:40:40.323Z,6.07
2019-01-13T10:43:10.939Z,6.19
2019-01-13T10:45:41.216Z,6.30
2019-01-13T10:48:11.495Z,6.45
2019-01-13T10:50:41.716Z,6.45
2019-01-13T10:53:12.077Z,6.45
2019-01-13T10:55:42.679Z,6.47
2019-01-13T10:58:12.974Z,6.48
2019-01-13T11:00:43.326Z,6.52
2019-01-13T11:03:13.625Z,6.59
2019-01-13T11:05:44.186Z,6.64
2019-01-13T11:08:14.473Z,6.64
2019-01-13T11:10:44.720Z,6.66
2019-01-13T11:13:15.085Z,6.63
2019-01-13T11:15:45.373Z,6.60
2019-01-13T11:18:15.673Z,6.56
2019-01-13T11:20:45.958Z,6.65
2019-01-13T11:23:16.273Z,6.61
2019-01-13T11:25:46.589Z,6.58
2019-01-13T11:28:16.896Z,6.56
2019-01-13T11:30:47.136Z,6.57
2019-01-13T11:33:17.322Z,6.56
2019-01-13T11:35:47.575Z,6.52
2019-01-13T11:38:18.093Z,6.56
2019-01-13T11:40:49.222Z,6.54
2019-01-13T11:43:19.543Z,6.59
2019-01-13T11:45:49.886Z,6.66
2019-01-13T11:48:20.112Z,6.67
2019-01-13T11:50:50.425Z,6.69
2019-01-13T11:53:20.680Z,6.72
2019-01-13T11:55:51.006Z,6.73
2019-01-13T11:58:21.301Z,6.75
2019-01-13T12:00:51.876Z,6.72
2019-01-13T12:03:22.255Z,6.74
2019-01-13T12:05:52.458Z,6.76
2019-01-13T12:08:22.832Z,6.80
2019-01-13T12:10:54.193Z,6.90
2019-01-13T12:13:24.490Z,6.92
2019-01-13T12:15:54.654Z,6.91
2019-01-13T12:18:25.208Z,6.85
2019-01-13T12:20:55.450Z,6.88
2019-01-13T12:23:27.230Z,6.90
2019-01-13T12:25:57.544Z,6.94
2019-01-13T12:28:27.895Z,6.89
2019-01-13T12:30:59.099Z,6.91
2019-01-13T12:33:29.414Z,6.90
2019-01-13T12:36:00.726Z,6.97
2019-01-13T12:38:32.019Z,6.94
2019-01-13T12:41:04.587Z,6.93
2019-01-13T12:43:35.855Z,7.00
2019-01-13T12:46:07.119Z,7.01
2019-01-13T12:48:37.709Z,7.06
2019-01-13T12:51:07.978Z,7.06
2019-01-13T12:53:38.576Z,7.05
2019-01-13T12:56:08.991Z,7.10
2019-01-13T12:58:39.219Z,7.13
2019-01-13T13:01:09.464Z,7.18
2019-01-13T13:03:39.971Z,7.16
2019-01-13T13:06:11.204Z,7.22
2019-01-13T13:08:42.498Z,7.30
2019-01-13T13:11:12.791Z,7.31
2019-01-13T13:13:43.176Z,7.32
2019-01-13T13:16:13.452Z,7.35
2019-01-13T13:18:43.795Z,7.31
2019-01-13T13:21:14.119Z,7.32
2019-01-13T13:23:44.326Z,7.34
2019-01-13T13:26:15.075Z,7.32
2019-01-13T13:28:45.364Z,7.33
2019-01-13T13:31:15.668Z,7.37
2019-01-13T13:33:45.936Z,7.35
2019-01-13T13:36:16.144Z,7.38
2019-01-13T13:38:46.481Z,7.40
2019-01-13T13:41:16.715Z,7.44
2019-01-13T13:43:45.565Z,7.44
2019-01-13T13:46:15.822Z,7.48
2019-01-13T13:48:46.197Z,7.49
2019-01-13T13:51:16.682Z,7.54
2019-01-13T13:53:47.020Z,7.57
2019-01-13T13:56:17.332Z,7.57
2019-01-13T13:58:47.776Z,7.56
2019-01-13T14:01:18.121Z,7.54
2019-01-13T14:03:48.452Z,7.63
2019-01-13T14:06:18.688Z,7.63
2019-01-13T14:08:48.967Z,7.67
2019-01-13T14:11:19.326Z,7.67
2019-01-13T14:13:49.634Z,7.65
2019-01-13T14:16:19.909Z,7.61
2019-01-13T14:18:50.421Z,7.64
2019-01-13T14:21:20.820Z,7.67
2019-01-13T14:23:51.297Z,7.67
2019-01-13T14:26:21.569Z,7.69
2019-01-13T14:28:51.917Z,7.78
2019-01-13T14:31:22.409Z,7.80
2019-01-13T14:33:53.224Z,7.86
2019-01-13T14:36:23.900Z,7.86
2019-01-13T14:38:54.203Z,8.02
2019-01-13T14:41:24.816Z,8.04
2019-01-13T14:43:55.040Z,8.04
2019-01-13T14:46:25.446Z,8.05
2019-01-13T14:48:55.731Z,8.11
2019-01-13T14:51:26.061Z,8.10
2019-01-13T14:53:56.355Z,8.16
2019-01-13T14:56:27.087Z,8.21
2019-01-13T14:58:57.524Z,8.22
2019-01-13T15:01:27.865Z,8.19
2019-01-13T15:04:00.035Z,8.21
2019-01-13T15:06:30.155Z,8.27
2019-01-13T15:09:00.477Z,8.25
2019-01-13T15:11:30.824Z,8.25
2019-01-13T15:14:01.198Z,8.23
2019-01-13T15:16:32.857Z,8.36
2019-01-13T15:19:03.635Z,8.39
2019-01-13T15:21:33.906Z,8.40
2019-01-13T15:24:04.284Z,8.43
2019-01-13T15:26:34.565Z,8.47
2019-01-13T15:29:04.831Z,8.52
2019-01-13T15:31:35.213Z,8.61
2019-01-13T15:34:07.336Z,8.56
2019-01-13T15:36:37.944Z,8.54
2019-01-13T15:39:09.247Z,8.52
2019-01-13T15:41:39.485Z,8.60
2019-01-13T15:44:09.842Z,8.61
2019-01-13T15:46:40.269Z,8.58
2019-01-13T15:49:10.494Z,8.64
2019-01-13T15:51:40.784Z,8.61
2019-01-13T15:54:11.122Z,8.61
2019-01-13T15:56:41.819Z,8.61
2019-01-13T15:59:12.087Z,8.67
2019-01-13T16:01:42.722Z,8.64
2019-01-13T16:04:14.792Z,8.63
2019-01-13T16:06:45.281Z,8.63
2019-01-13T16:09:15.808Z,8.73
2019-01-13T16:11:46.197Z,8.72
2019-01-13T16:14:16.394Z,8.77
2019-01-13T16:16:46.669Z,8.76
2019-01-13T16:19:16.944Z,8.33
2019-01-13T16:21:47.309Z,8.05
2019-01-13T16:24:17.631Z,7.99
2019-01-13T16:26:47.882Z,7.96
2019-01-13T16:29:18.142Z,7.91
2019-01-13T16:31:48.503Z,7.94
2019-01-13T16:34:21.578Z,8.06
2019-01-13T16:36:50.749Z,8.03
2019-01-13T16:39:20.966Z,8.03
2019-01-13T16:41:51.332Z,8.07
2019-01-13T16:44:21.563Z,8.19
2019-01-13T16:46:51.828Z,8.32
2019-01-13T16:49:22.069Z,8.35
2019-01-13T16:51:52.366Z,8.37
2019-01-13T16:54:22.862Z,8.44
2019-01-13T16:56:53.495Z,8.43
2019-01-13T16:59:23.781Z,8.40
2019-01-13T17:01:54.351Z,8.35
2019-01-13T17:04:28.742Z,8.40
2019-01-13T17:06:56.648Z,8.41
2019-01-13T17:09:27.062Z,8.43
2019-01-13T17:11:57.348Z,8.47
2019-01-13T17:14:27.542Z,8.41
2019-01-13T17:16:57.895Z,8.40
2019-01-13T17:19:28.131Z,8.45
2019-01-13T17:21:58.402Z,8.40
2019-01-13T17:24:28.630Z,8.42
2019-01-13T17:26:59.063Z,8.47
2019-01-13T17:29:29.466Z,8.53
2019-01-13T17:31:59.809Z,8.53
2019-01-13T17:34:35.877Z,8.60
2019-01-13T17:37:02.110Z,8.58
2019-01-13T17:39:32.302Z,8.56
2019-01-13T17:42:02.547Z,8.56
2019-01-13T17:44:32.943Z,8.61
2019-01-13T17:47:03.197Z,8.61
2019-01-13T17:49:33.493Z,8.54
2019-01-13T17:52:03.801Z,8.63
2019-01-13T17:54:34.333Z,8.69
2019-01-13T17:57:04.733Z,8.67
2019-01-13T17:59:34.988Z,8.67
2019-01-13T18:02:05.361Z,8.61
2019-01-13T18:04:35.661Z,8.55
2019-01-13T18:07:05.903Z,8.55
2019-01-13T18:09:36.154Z,8.51
2019-01-13T18:12:06.464Z,8.55
2019-01-13T18:14:36.713Z,8.52
2019-01-13T18:17:07.033Z,8.47
2019-01-13T18:19:38.215Z,8.44
2019-01-13T18:22:08.531Z,8.35
2019-01-13T18:24:38.835Z,8.29
2019-01-13T18:27:09.145Z,8.26
2019-01-13T18:29:39.452Z,8.17
2019-01-13T18:32:09.752Z,8.10
2019-01-13T18:34:40.024Z,8.00
2019-01-13T18:37:10.303Z,7.95
2019-01-13T18:39:40.569Z,7.93
2019-01-13T18:42:10.865Z,7.95
2019-01-13T18:44:41.166Z,7.97
2019-01-13T18:47:11.477Z,7.93
2019-01-13T18:49:42.051Z,7.92
2019-01-13T18:52:12.561Z,7.88
2019-01-13T18:54:42.915Z,7.80
2019-01-13T18:57:13.169Z,7.73
2019-01-13T18:59:43.441Z,7.74
2019-01-13T19:02:13.798Z,7.87
2019-01-13T19:04:44.081Z,7.81
2019-01-13T19:07:14.360Z,7.76
2019-01-13T19:09:44.899Z,7.68
2019-01-13T19:12:15.124Z,7.66
2019-01-13T19:14:49.646Z,7.61
2019-01-13T19:17:25.401Z,7.58
2019-01-13T19:20:24.343Z,7.56
2019-01-13T19:22:57.680Z,7.57
2019-01-13T19:25:30.985Z,7.58
2019-01-13T19:28:02.360Z,7.58
2019-01-13T19:30:32.772Z,7.59
2019-01-13T19:33:03.141Z,7.63
2019-01-13T19:35:34.435Z,7.61
2019-01-13T19:38:04.945Z,7.65
2019-01-13T19:40:35.220Z,7.67
2019-01-13T19:43:05.705Z,7.71
2019-01-13T19:45:35.974Z,7.80
2019-01-13T19:48:06.306Z,7.80
2019-01-13T19:50:36.571Z,7.92
2019-01-13T19:53:06.960Z,7.97
2019-01-13T19:55:37.258Z,7.96
2019-01-13T19:58:07.546Z,7.99
2019-01-13T20:00:38.105Z,7.97
2019-01-13T20:03:08.762Z,7.98
2019-01-13T20:05:39.053Z,8.03
2019-01-13T20:08:09.375Z,8.03
2019-01-13T20:10:39.880Z,8.05
2019-01-13T20:13:10.226Z,8.08
2019-01-13T20:15:40.468Z,8.12
2019-01-13T20:18:10.885Z,8.10
2019-01-13T20:20:41.088Z,8.10
2019-01-13T20:23:11.502Z,8.08
2019-01-13T20:25:41.785Z,8.08
2019-01-13T20:28:12.258Z,8.04
2019-01-13T20:30:42.503Z,8.07
2019-01-13T20:33:12.822Z,8.00
2019-01-13T20:35:43.186Z,7.98
2019-01-13T20:38:13.503Z,7.97
2019-01-13T20:40:43.823Z,7.96
2019-01-13T20:43:14.103Z,7.92
2019-01-13T20:45:44.602Z,7.95
2019-01-13T20:48:14.933Z,7.88
2019-01-13T20:50:45.233Z,7.85
2019-01-13T20:53:15.582Z,7.87
2019-01-13T20:55:45.908Z,7.89
2019-01-13T20:58:16.236Z,7.89
2019-01-13T21:00:46.645Z,7.89
2019-01-13T21:03:16.925Z,7.81
2019-01-13T21:05:47.667Z,7.82
2019-01-13T21:08:18.767Z,7.82
2019-01-13T21:10:49.070Z,7.93
2019-01-13T21:13:19.823Z,7.91
2019-01-13T21:15:50.156Z,7.92
2019-01-13T21:18:20.400Z,7.84
2019-01-13T21:20:50.699Z,7.87
2019-01-13T21:23:20.910Z,7.95
2019-01-13T21:25:51.319Z,7.93
2019-01-13T21:28:21.603Z,7.96
2019-01-13T21:30:51.927Z,7.90
2019-01-13T21:33:22.392Z,7.87
2019-01-13T21:35:52.719Z,7.90
2019-01-13T21:38:23.013Z,7.96
2019-01-13T21:40:53.575Z,7.97
2019-01-13T21:43:23.961Z,8.00
2019-01-13T21:45:54.413Z,8.01
2019-01-13T21:48:24.783Z,7.96
2019-01-13T21:50:55.189Z,8.00
2019-01-13T21:53:25.473Z,8.05
2019-01-13T21:55:55.796Z,8.04
2019-01-13T21:58:26.134Z,7.99
2019-01-13T22:00:56.397Z,8.02
2019-01-13T22:03:26.683Z,8.10
2019-01-13T22:05:57.026Z,8.13
2019-01-13T22:08:27.322Z,8.12
2019-01-13T22:10:57.591Z,8.17
2019-01-13T22:13:27.868Z,8.11
2019-01-13T22:15:58.245Z,8.14
2019-01-13T22:18:28.562Z,8.10
2019-01-13T22:20:58.892Z,8.25
2019-01-13T22:23:37.192Z,8.26
2019-01-13T22:26:18.772Z,8.24
2019-01-13T22:28:49.816Z,8.26
2019-01-13T22:31:22.461Z,8.25
2019-01-13T22:33:52.040Z,8.24
2019-01-13T22:36:24.393Z,8.19
2019-01-13T22:38:56.708Z,8.18
2019-01-13T22:41:28.057Z,8.21
2019-01-13T22:43:59.985Z,8.24
2019-01-13T22:46:30.334Z,8.28
2019-01-13T22:49:02.592Z,8.24
2019-01-13T22:51:34.836Z,8.37
2019-01-13T22:54:07.017Z,8.31
2019-01-13T22:56:37.334Z,8.21
2019-01-13T22:59:07.574Z,8.23
2019-01-13T23:01:42.284Z,8.16
2019-01-13T23:04:19.173Z,8.14
2019-01-13T23:06:53.348Z,8.12
2019-01-13T23:09:23.592Z,8.09
2019-01-13T23:11:53.899Z,8.04
2019-01-13T23:14:25.168Z,8.07
2019-01-13T23:16:55.464Z,8.01
2019-01-13T23:19:26.083Z,8.01
2019-01-13T23:21:56.420Z,8.03
2019-01-13T23:24:26.976Z,8.03
2019-01-13T23:26:57.280Z,8.03
2019-01-13T23:29:27.910Z,8.01
2019-01-13T23:31:58.268Z,8.02
2019-01-13T23:34:28.940Z,8.00
2019-01-13T23:36:59.192Z,8.01
2019-01-13T23:39:29.517Z,7.99
2019-01-13T23:41:59.921Z,7.97
2019-01-13T23:44:30.208Z,7.96
2019-01-13T23:47:00.409Z,7.93
2019-01-13T23:49:30.664Z,7.89
2019-01-13T23:52:00.926Z,7.84
2019-01-13T23:54:31.236Z,7.79
2019-01-13T23:57:01.516Z,7.75
2019-01-13T23:59:31.809Z,7.70
